sensor_id;sensor_type;location;lat;lon;timestamp;P1;durP1;ratioP1;P2;durP2;ratioP2
4424;SDS011;2225;53.568;13.266;2023-09-07T00:00:59;15.30;;;7.90;;
4424;SDS011;2225;53.568;13.266;2023-09-07T00:03:31;15.83;;;7.63;;
4424;SDS011;2225;53.568;13.266;2023-09-07T00:05:58;16.40;;;8.73;;
4424;SDS011;2225;53.568;13.266;2023-09-07T00:08:25;14.03;;;8.27;;
4424;SDS011;2225;53.568;13.266;2023-09-07T00:10:52;13.53;;;7.17;;
4424;SDS011;2225;53.568;13.266;2023-09-07T00:13:19;12.90;;;7.70;;
4424;SDS011;2225;53.568;13.266;2023-09-07T00:15:46;16.70;;;8.13;;
4424;SDS011;2225;53.568;13.266;2023-09-07T00:18:13;14.00;;;7.83;;
4424;SDS011;2225;53.568;13.266;2023-09-07T00:20:42;13.40;;;8.10;;
4424;SDS011;2225;53.568;13.266;2023-09-07T00:23:09;13.23;;;7.63;;
4424;SDS011;2225;53.568;13.266;2023-09-07T00:25:36;14.13;;;8.23;;
4424;SDS011;2225;53.568;13.266;2023-09-07T00:28:04;16.57;;;9.07;;
4424;SDS011;2225;53.568;13.266;2023-09-07T00:30:31;13.10;;;7.67;;
4424;SDS011;2225;53.568;13.266;2023-09-07T00:32:58;21.00;;;8.80;;
4424;SDS011;2225;53.568;13.266;2023-09-07T00:35:25;18.17;;;9.67;;
4424;SDS011;2225;53.568;13.266;2023-09-07T00:37:52;13.80;;;8.53;;
4424;SDS011;2225;53.568;13.266;2023-09-07T00:40:21;16.03;;;8.30;;
4424;SDS011;2225;53.568;13.266;2023-09-07T00:42:48;15.47;;;8.97;;
4424;SDS011;2225;53.568;13.266;2023-09-07T00:45:15;21.93;;;9.07;;
4424;SDS011;2225;53.568;13.266;2023-09-07T00:47:44;13.97;;;9.00;;
4424;SDS011;2225;53.568;13.266;2023-09-07T00:50:11;16.40;;;9.50;;
4424;SDS011;2225;53.568;13.266;2023-09-07T00:52:43;16.50;;;10.00;;
4424;SDS011;2225;53.568;13.266;2023-09-07T00:55:11;16.10;;;10.00;;
4424;SDS011;2225;53.568;13.266;2023-09-07T00:57:39;16.47;;;9.70;;
4424;SDS011;2225;53.568;13.266;2023-09-07T01:00:09;15.30;;;8.80;;
4424;SDS011;2225;53.568;13.266;2023-09-07T01:02:36;15.33;;;8.43;;
4424;SDS011;2225;53.568;13.266;2023-09-07T01:05:04;15.00;;;8.80;;
4424;SDS011;2225;53.568;13.266;2023-09-07T01:07:32;14.57;;;9.57;;
4424;SDS011;2225;53.568;13.266;2023-09-07T01:10:07;16.50;;;9.83;;
4424;SDS011;2225;53.568;13.266;2023-09-07T01:12:34;14.53;;;9.47;;
4424;SDS011;2225;53.568;13.266;2023-09-07T01:15:01;15.40;;;10.10;;
4424;SDS011;2225;53.568;13.266;2023-09-07T01:17:31;15.37;;;9.80;;
4424;SDS011;2225;53.568;13.266;2023-09-07T01:20:03;15.47;;;9.40;;
4424;SDS011;2225;53.568;13.266;2023-09-07T01:22:37;15.03;;;9.47;;
4424;SDS011;2225;53.568;13.266;2023-09-07T01:25:05;16.97;;;10.53;;
4424;SDS011;2225;53.568;13.266;2023-09-07T01:27:34;16.83;;;10.90;;
4424;SDS011;2225;53.568;13.266;2023-09-07T01:30:01;19.20;;;10.87;;
4424;SDS011;2225;53.568;13.266;2023-09-07T01:32:30;18.53;;;10.70;;
4424;SDS011;2225;53.568;13.266;2023-09-07T01:34:57;13.00;;;8.17;;
4424;SDS011;2225;53.568;13.266;2023-09-07T01:37:25;15.13;;;8.77;;
4424;SDS011;2225;53.568;13.266;2023-09-07T01:39:53;13.70;;;8.47;;
4424;SDS011;2225;53.568;13.266;2023-09-07T01:42:20;13.83;;;8.27;;
4424;SDS011;2225;53.568;13.266;2023-09-07T01:44:48;13.80;;;9.10;;
4424;SDS011;2225;53.568;13.266;2023-09-07T01:47:15;15.80;;;9.67;;
4424;SDS011;2225;53.568;13.266;2023-09-07T01:49:42;14.90;;;8.67;;
4424;SDS011;2225;53.568;13.266;2023-09-07T01:52:09;15.43;;;8.20;;
4424;SDS011;2225;53.568;13.266;2023-09-07T01:54:36;13.90;;;8.63;;
4424;SDS011;2225;53.568;13.266;2023-09-07T01:57:03;12.50;;;7.33;;
4424;SDS011;2225;53.568;13.266;2023-09-07T01:59:30;16.20;;;7.73;;
4424;SDS011;2225;53.568;13.266;2023-09-07T02:01:57;15.07;;;7.90;;
4424;SDS011;2225;53.568;13.266;2023-09-07T02:04:24;15.07;;;7.57;;
4424;SDS011;2225;53.568;13.266;2023-09-07T02:06:51;12.53;;;7.30;;
4424;SDS011;2225;53.568;13.266;2023-09-07T02:09:18;13.93;;;7.90;;
4424;SDS011;2225;53.568;13.266;2023-09-07T02:11:45;14.07;;;8.53;;
4424;SDS011;2225;53.568;13.266;2023-09-07T02:14:12;16.20;;;8.80;;
4424;SDS011;2225;53.568;13.266;2023-09-07T02:16:39;16.40;;;8.30;;
4424;SDS011;2225;53.568;13.266;2023-09-07T02:19:06;21.50;;;9.50;;
4424;SDS011;2225;53.568;13.266;2023-09-07T02:21:33;15.43;;;8.80;;
4424;SDS011;2225;53.568;13.266;2023-09-07T02:24:00;13.90;;;7.57;;
4424;SDS011;2225;53.568;13.266;2023-09-07T02:26:27;15.13;;;7.60;;
4424;SDS011;2225;53.568;13.266;2023-09-07T02:28:54;14.53;;;8.33;;
4424;SDS011;2225;53.568;13.266;2023-09-07T02:31:22;14.30;;;8.63;;
4424;SDS011;2225;53.568;13.266;2023-09-07T02:33:50;13.10;;;7.77;;
4424;SDS011;2225;53.568;13.266;2023-09-07T02:36:17;14.70;;;8.33;;
4424;SDS011;2225;53.568;13.266;2023-09-07T02:38:44;12.23;;;7.00;;
4424;SDS011;2225;53.568;13.266;2023-09-07T02:41:11;14.80;;;8.53;;
4424;SDS011;2225;53.568;13.266;2023-09-07T02:43:38;14.57;;;9.30;;
4424;SDS011;2225;53.568;13.266;2023-09-07T02:46:05;13.57;;;8.23;;
4424;SDS011;2225;53.568;13.266;2023-09-07T02:48:32;15.00;;;8.10;;
4424;SDS011;2225;53.568;13.266;2023-09-07T02:50:59;14.10;;;8.57;;
4424;SDS011;2225;53.568;13.266;2023-09-07T02:53:27;13.40;;;8.40;;
4424;SDS011;2225;53.568;13.266;2023-09-07T02:55:55;14.30;;;8.20;;
4424;SDS011;2225;53.568;13.266;2023-09-07T02:58:22;12.10;;;7.60;;
4424;SDS011;2225;53.568;13.266;2023-09-07T03:00:51;12.43;;;7.63;;
4424;SDS011;2225;53.568;13.266;2023-09-07T03:03:20;12.40;;;7.03;;
4424;SDS011;2225;53.568;13.266;2023-09-07T03:05:47;12.87;;;7.77;;
4424;SDS011;2225;53.568;13.266;2023-09-07T03:08:15;14.20;;;8.23;;
4424;SDS011;2225;53.568;13.266;2023-09-07T03:10:41;14.17;;;9.07;;
4424;SDS011;2225;53.568;13.266;2023-09-07T03:13:10;14.40;;;8.07;;
4424;SDS011;2225;53.568;13.266;2023-09-07T03:15:37;13.57;;;8.70;;
4424;SDS011;2225;53.568;13.266;2023-09-07T03:18:08;14.90;;;9.80;;
4424;SDS011;2225;53.568;13.266;2023-09-07T03:20:36;16.27;;;9.63;;
4424;SDS011;2225;53.568;13.266;2023-09-07T03:23:04;15.87;;;9.80;;
4424;SDS011;2225;53.568;13.266;2023-09-07T03:25:33;17.37;;;10.87;;
4424;SDS011;2225;53.568;13.266;2023-09-07T03:28:00;17.90;;;11.23;;
4424;SDS011;2225;53.568;13.266;2023-09-07T03:30:27;20.17;;;13.00;;
4424;SDS011;2225;53.568;13.266;2023-09-07T03:32:54;24.67;;;13.60;;
4424;SDS011;2225;53.568;13.266;2023-09-07T03:35:21;21.70;;;14.13;;
4424;SDS011;2225;53.568;13.266;2023-09-07T03:37:48;26.87;;;15.90;;
4424;SDS011;2225;53.568;13.266;2023-09-07T03:40:16;46.30;;;15.63;;
4424;SDS011;2225;53.568;13.266;2023-09-07T03:42:43;29.53;;;17.07;;
4424;SDS011;2225;53.568;13.266;2023-09-07T03:45:13;32.40;;;15.27;;
4424;SDS011;2225;53.568;13.266;2023-09-07T03:47:40;30.30;;;14.97;;
4424;SDS011;2225;53.568;13.266;2023-09-07T03:50:09;25.07;;;15.30;;
4424;SDS011;2225;53.568;13.266;2023-09-07T03:52:37;24.73;;;14.77;;
4424;SDS011;2225;53.568;13.266;2023-09-07T03:55:05;25.40;;;15.03;;
4424;SDS011;2225;53.568;13.266;2023-09-07T03:57:33;28.10;;;14.10;;
4424;SDS011;2225;53.568;13.266;2023-09-07T04:00:01;27.83;;;14.57;;
4424;SDS011;2225;53.568;13.266;2023-09-07T04:02:38;18.73;;;11.60;;
4424;SDS011;2225;53.568;13.266;2023-09-07T04:05:07;24.70;;;12.00;;
4424;SDS011;2225;53.568;13.266;2023-09-07T04:07:37;22.00;;;13.80;;
4424;SDS011;2225;53.568;13.266;2023-09-07T04:10:04;19.37;;;12.03;;
4424;SDS011;2225;53.568;13.266;2023-09-07T04:12:32;18.20;;;10.57;;
4424;SDS011;2225;53.568;13.266;2023-09-07T04:15:01;20.90;;;11.67;;
4424;SDS011;2225;53.568;13.266;2023-09-07T04:17:29;22.63;;;13.57;;
4424;SDS011;2225;53.568;13.266;2023-09-07T04:19:56;36.50;;;17.67;;
4424;SDS011;2225;53.568;13.266;2023-09-07T04:22:23;32.30;;;18.97;;
4424;SDS011;2225;53.568;13.266;2023-09-07T04:24:50;29.63;;;16.77;;
4424;SDS011;2225;53.568;13.266;2023-09-07T04:27:17;40.13;;;17.57;;
4424;SDS011;2225;53.568;13.266;2023-09-07T04:29:44;34.13;;;17.70;;
4424;SDS011;2225;53.568;13.266;2023-09-07T04:32:11;34.90;;;16.93;;
4424;SDS011;2225;53.568;13.266;2023-09-07T04:34:38;32.60;;;16.67;;
4424;SDS011;2225;53.568;13.266;2023-09-07T04:37:05;37.23;;;16.53;;
4424;SDS011;2225;53.568;13.266;2023-09-07T04:39:32;49.23;;;18.80;;
4424;SDS011;2225;53.568;13.266;2023-09-07T04:41:59;61.33;;;19.67;;
4424;SDS011;2225;53.568;13.266;2023-09-07T04:44:26;34.43;;;17.93;;
4424;SDS011;2225;53.568;13.266;2023-09-07T04:46:55;58.40;;;18.77;;
4424;SDS011;2225;53.568;13.266;2023-09-07T04:49:25;69.03;;;20.30;;
4424;SDS011;2225;53.568;13.266;2023-09-07T04:51:53;73.53;;;20.30;;
4424;SDS011;2225;53.568;13.266;2023-09-07T04:54:21;53.80;;;20.10;;
4424;SDS011;2225;53.568;13.266;2023-09-07T04:56:48;121.67;;;22.10;;
4424;SDS011;2225;53.568;13.266;2023-09-07T04:59:15;88.60;;;22.23;;
4424;SDS011;2225;53.568;13.266;2023-09-07T05:01:44;95.63;;;21.60;;
4424;SDS011;2225;53.568;13.266;2023-09-07T05:04:10;73.10;;;21.07;;
4424;SDS011;2225;53.568;13.266;2023-09-07T05:06:38;50.97;;;21.00;;
4424;SDS011;2225;53.568;13.266;2023-09-07T05:09:07;69.73;;;18.83;;
4424;SDS011;2225;53.568;13.266;2023-09-07T05:11:34;65.10;;;18.83;;
4424;SDS011;2225;53.568;13.266;2023-09-07T05:14:02;73.60;;;20.07;;
4424;SDS011;2225;53.568;13.266;2023-09-07T05:16:29;118.77;;;22.77;;
4424;SDS011;2225;53.568;13.266;2023-09-07T05:18:56;74.47;;;21.40;;
4424;SDS011;2225;53.568;13.266;2023-09-07T05:21:23;67.30;;;19.27;;
4424;SDS011;2225;53.568;13.266;2023-09-07T05:23:51;89.13;;;19.27;;
4424;SDS011;2225;53.568;13.266;2023-09-07T05:26:21;45.20;;;18.60;;
4424;SDS011;2225;53.568;13.266;2023-09-07T05:28:52;56.03;;;20.60;;
4424;SDS011;2225;53.568;13.266;2023-09-07T05:31:19;45.53;;;19.07;;
4424;SDS011;2225;53.568;13.266;2023-09-07T05:33:46;46.63;;;18.87;;
4424;SDS011;2225;53.568;13.266;2023-09-07T05:36:13;41.93;;;19.77;;
4424;SDS011;2225;53.568;13.266;2023-09-07T05:38:40;54.50;;;19.97;;
4424;SDS011;2225;53.568;13.266;2023-09-07T05:41:07;44.67;;;19.07;;
4424;SDS011;2225;53.568;13.266;2023-09-07T05:43:34;48.37;;;19.13;;
4424;SDS011;2225;53.568;13.266;2023-09-07T05:46:01;57.17;;;18.70;;
4424;SDS011;2225;53.568;13.266;2023-09-07T05:48:29;65.33;;;17.40;;
4424;SDS011;2225;53.568;13.266;2023-09-07T05:50:56;58.07;;;18.10;;
4424;SDS011;2225;53.568;13.266;2023-09-07T05:53:23;43.83;;;18.57;;
4424;SDS011;2225;53.568;13.266;2023-09-07T05:55:53;40.93;;;19.07;;
4424;SDS011;2225;53.568;13.266;2023-09-07T05:58:20;42.93;;;19.57;;
4424;SDS011;2225;53.568;13.266;2023-09-07T06:00:47;38.03;;;19.30;;
4424;SDS011;2225;53.568;13.266;2023-09-07T06:03:14;83.70;;;20.03;;
4424;SDS011;2225;53.568;13.266;2023-09-07T06:05:42;55.13;;;18.80;;
4424;SDS011;2225;53.568;13.266;2023-09-07T06:08:10;39.83;;;18.33;;
4424;SDS011;2225;53.568;13.266;2023-09-07T06:10:37;43.30;;;18.80;;
4424;SDS011;2225;53.568;13.266;2023-09-07T06:13:06;36.70;;;18.70;;
4424;SDS011;2225;53.568;13.266;2023-09-07T06:15:33;62.10;;;16.83;;
4424;SDS011;2225;53.568;13.266;2023-09-07T06:18:00;34.63;;;17.77;;
4424;SDS011;2225;53.568;13.266;2023-09-07T06:20:27;28.03;;;15.73;;
4424;SDS011;2225;53.568;13.266;2023-09-07T06:22:57;31.90;;;15.30;;
4424;SDS011;2225;53.568;13.266;2023-09-07T06:25:24;37.43;;;14.30;;
4424;SDS011;2225;53.568;13.266;2023-09-07T06:27:53;31.77;;;14.33;;
4424;SDS011;2225;53.568;13.266;2023-09-07T06:30:20;23.93;;;13.80;;
4424;SDS011;2225;53.568;13.266;2023-09-07T06:32:47;31.87;;;14.50;;
4424;SDS011;2225;53.568;13.266;2023-09-07T06:35:15;24.33;;;14.70;;
4424;SDS011;2225;53.568;13.266;2023-09-07T06:37:44;23.53;;;13.20;;
4424;SDS011;2225;53.568;13.266;2023-09-07T06:40:14;24.33;;;14.30;;
4424;SDS011;2225;53.568;13.266;2023-09-07T06:42:42;24.13;;;14.47;;
4424;SDS011;2225;53.568;13.266;2023-09-07T06:45:13;26.47;;;17.20;;
4424;SDS011;2225;53.568;13.266;2023-09-07T06:47:41;25.90;;;15.00;;
4424;SDS011;2225;53.568;13.266;2023-09-07T06:50:09;38.43;;;16.03;;
4424;SDS011;2225;53.568;13.266;2023-09-07T06:52:36;26.63;;;16.90;;
4424;SDS011;2225;53.568;13.266;2023-09-07T06:55:04;43.40;;;16.93;;
4424;SDS011;2225;53.568;13.266;2023-09-07T06:57:31;25.87;;;15.60;;
4424;SDS011;2225;53.568;13.266;2023-09-07T07:00:02;33.83;;;16.07;;
4424;SDS011;2225;53.568;13.266;2023-09-07T07:02:34;26.83;;;16.33;;
4424;SDS011;2225;53.568;13.266;2023-09-07T07:05:01;31.10;;;17.17;;
4424;SDS011;2225;53.568;13.266;2023-09-07T07:07:29;26.53;;;17.40;;
4424;SDS011;2225;53.568;13.266;2023-09-07T07:09:56;24.47;;;16.97;;
4424;SDS011;2225;53.568;13.266;2023-09-07T07:12:23;31.40;;;19.87;;
4424;SDS011;2225;53.568;13.266;2023-09-07T07:14:52;24.57;;;15.70;;
4424;SDS011;2225;53.568;13.266;2023-09-07T07:17:19;28.13;;;16.10;;
4424;SDS011;2225;53.568;13.266;2023-09-07T07:19:47;25.57;;;18.03;;
4424;SDS011;2225;53.568;13.266;2023-09-07T07:22:14;29.43;;;16.07;;
4424;SDS011;2225;53.568;13.266;2023-09-07T07:24:41;25.00;;;15.33;;
4424;SDS011;2225;53.568;13.266;2023-09-07T07:27:08;28.03;;;16.90;;
4424;SDS011;2225;53.568;13.266;2023-09-07T07:29:37;24.07;;;16.30;;
4424;SDS011;2225;53.568;13.266;2023-09-07T07:32:05;29.27;;;17.47;;
4424;SDS011;2225;53.568;13.266;2023-09-07T07:34:32;23.80;;;16.80;;
4424;SDS011;2225;53.568;13.266;2023-09-07T07:37:00;23.37;;;16.07;;
4424;SDS011;2225;53.568;13.266;2023-09-07T07:39:27;21.13;;;15.67;;
4424;SDS011;2225;53.568;13.266;2023-09-07T07:41:54;21.60;;;15.20;;
4424;SDS011;2225;53.568;13.266;2023-09-07T07:44:21;22.80;;;15.00;;
4424;SDS011;2225;53.568;13.266;2023-09-07T07:46:49;24.00;;;14.57;;
4424;SDS011;2225;53.568;13.266;2023-09-07T07:49:16;20.17;;;13.50;;
4424;SDS011;2225;53.568;13.266;2023-09-07T07:51:43;19.03;;;14.07;;
4424;SDS011;2225;53.568;13.266;2023-09-07T07:54:10;23.03;;;15.70;;
4424;SDS011;2225;53.568;13.266;2023-09-07T07:56:38;21.00;;;15.27;;
4424;SDS011;2225;53.568;13.266;2023-09-07T07:59:06;25.40;;;14.80;;
4424;SDS011;2225;53.568;13.266;2023-09-07T08:01:34;23.17;;;14.37;;
4424;SDS011;2225;53.568;13.266;2023-09-07T08:04:02;22.83;;;14.80;;
4424;SDS011;2225;53.568;13.266;2023-09-07T08:06:31;19.03;;;14.37;;
4424;SDS011;2225;53.568;13.266;2023-09-07T08:08:58;21.57;;;14.63;;
4424;SDS011;2225;53.568;13.266;2023-09-07T08:11:25;22.97;;;16.43;;
4424;SDS011;2225;53.568;13.266;2023-09-07T08:13:53;26.80;;;15.43;;
4424;SDS011;2225;53.568;13.266;2023-09-07T08:16:20;21.10;;;15.70;;
4424;SDS011;2225;53.568;13.266;2023-09-07T08:18:49;21.97;;;14.10;;
4424;SDS011;2225;53.568;13.266;2023-09-07T08:21:17;23.40;;;16.00;;
4424;SDS011;2225;53.568;13.266;2023-09-07T08:23:44;21.83;;;15.33;;
4424;SDS011;2225;53.568;13.266;2023-09-07T08:26:13;27.03;;;14.87;;
4424;SDS011;2225;53.568;13.266;2023-09-07T08:28:42;19.77;;;13.73;;
4424;SDS011;2225;53.568;13.266;2023-09-07T08:31:12;22.50;;;14.40;;
4424;SDS011;2225;53.568;13.266;2023-09-07T08:33:48;28.30;;;14.37;;
4424;SDS011;2225;53.568;13.266;2023-09-07T08:36:17;22.53;;;12.60;;
4424;SDS011;2225;53.568;13.266;2023-09-07T08:38:44;21.53;;;13.20;;
4424;SDS011;2225;53.568;13.266;2023-09-07T08:41:11;22.80;;;13.50;;
4424;SDS011;2225;53.568;13.266;2023-09-07T08:43:39;26.37;;;13.07;;
4424;SDS011;2225;53.568;13.266;2023-09-07T08:46:17;28.07;;;12.23;;
4424;SDS011;2225;53.568;13.266;2023-09-07T08:48:49;20.27;;;12.37;;
4424;SDS011;2225;53.568;13.266;2023-09-07T08:51:17;19.13;;;12.20;;
4424;SDS011;2225;53.568;13.266;2023-09-07T08:53:45;20.57;;;11.63;;
4424;SDS011;2225;53.568;13.266;2023-09-07T08:56:13;15.43;;;9.53;;
4424;SDS011;2225;53.568;13.266;2023-09-07T08:58:41;16.13;;;9.13;;
4424;SDS011;2225;53.568;13.266;2023-09-07T09:01:11;13.40;;;9.53;;
4424;SDS011;2225;53.568;13.266;2023-09-07T09:03:39;19.33;;;9.73;;
4424;SDS011;2225;53.568;13.266;2023-09-07T09:06:09;15.03;;;8.90;;
4424;SDS011;2225;53.568;13.266;2023-09-07T09:08:46;24.43;;;9.63;;
4424;SDS011;2225;53.568;13.266;2023-09-07T09:11:19;15.47;;;8.80;;
4424;SDS011;2225;53.568;13.266;2023-09-07T09:13:48;13.63;;;8.90;;
4424;SDS011;2225;53.568;13.266;2023-09-07T09:16:16;16.87;;;9.27;;
4424;SDS011;2225;53.568;13.266;2023-09-07T09:18:47;15.30;;;8.60;;
4424;SDS011;2225;53.568;13.266;2023-09-07T09:21:19;16.37;;;8.80;;
4424;SDS011;2225;53.568;13.266;2023-09-07T09:23:48;14.97;;;7.60;;
4424;SDS011;2225;53.568;13.266;2023-09-07T09:26:17;14.90;;;7.00;;
4424;SDS011;2225;53.568;13.266;2023-09-07T09:28:45;14.87;;;8.10;;
4424;SDS011;2225;53.568;13.266;2023-09-07T09:31:12;15.10;;;7.10;;
4424;SDS011;2225;53.568;13.266;2023-09-07T09:33:41;16.23;;;7.93;;
4424;SDS011;2225;53.568;13.266;2023-09-07T09:36:09;11.33;;;6.53;;
4424;SDS011;2225;53.568;13.266;2023-09-07T09:38:36;13.37;;;7.13;;
4424;SDS011;2225;53.568;13.266;2023-09-07T09:41:03;13.43;;;6.97;;
4424;SDS011;2225;53.568;13.266;2023-09-07T09:43:31;11.93;;;6.27;;
4424;SDS011;2225;53.568;13.266;2023-09-07T09:45:59;16.10;;;6.73;;
4424;SDS011;2225;53.568;13.266;2023-09-07T09:48:27;12.53;;;6.87;;
4424;SDS011;2225;53.568;13.266;2023-09-07T09:50:54;10.73;;;6.60;;
4424;SDS011;2225;53.568;13.266;2023-09-07T09:53:23;14.47;;;6.83;;
4424;SDS011;2225;53.568;13.266;2023-09-07T09:55:53;16.03;;;6.70;;
4424;SDS011;2225;53.568;13.266;2023-09-07T09:58:20;12.57;;;5.67;;
4424;SDS011;2225;53.568;13.266;2023-09-07T10:00:49;10.30;;;5.53;;
4424;SDS011;2225;53.568;13.266;2023-09-07T10:03:23;9.13;;;6.10;;
4424;SDS011;2225;53.568;13.266;2023-09-07T10:09:04;10.13;;;5.77;;
4424;SDS011;2225;53.568;13.266;2023-09-07T10:11:37;13.57;;;5.93;;
4424;SDS011;2225;53.568;13.266;2023-09-07T10:14:05;13.10;;;5.80;;
4424;SDS011;2225;53.568;13.266;2023-09-07T10:16:44;14.10;;;5.00;;
4424;SDS011;2225;53.568;13.266;2023-09-07T10:19:19;11.47;;;5.37;;
4424;SDS011;2225;53.568;13.266;2023-09-07T10:21:47;17.17;;;5.23;;
4424;SDS011;2225;53.568;13.266;2023-09-07T10:24:25;12.80;;;5.63;;
4424;SDS011;2225;53.568;13.266;2023-09-07T10:27:00;13.23;;;6.13;;
4424;SDS011;2225;53.568;13.266;2023-09-07T10:29:46;11.60;;;5.90;;
4424;SDS011;2225;53.568;13.266;2023-09-07T10:32:22;9.10;;;4.87;;
4424;SDS011;2225;53.568;13.266;2023-09-07T10:34:49;9.03;;;5.10;;
4424;SDS011;2225;53.568;13.266;2023-09-07T10:37:17;8.67;;;5.17;;
4424;SDS011;2225;53.568;13.266;2023-09-07T10:39:44;11.33;;;5.47;;
4424;SDS011;2225;53.568;13.266;2023-09-07T10:42:21;16.13;;;6.37;;
4424;SDS011;2225;53.568;13.266;2023-09-07T10:44:52;11.73;;;5.30;;
4424;SDS011;2225;53.568;13.266;2023-09-07T10:47:20;8.67;;;4.90;;
4424;SDS011;2225;53.568;13.266;2023-09-07T10:49:48;10.00;;;4.40;;
4424;SDS011;2225;53.568;13.266;2023-09-07T10:52:15;7.43;;;4.00;;
4424;SDS011;2225;53.568;13.266;2023-09-07T10:54:42;9.07;;;4.40;;
4424;SDS011;2225;53.568;13.266;2023-09-07T10:57:10;9.67;;;3.97;;
4424;SDS011;2225;53.568;13.266;2023-09-07T10:59:46;8.80;;;3.93;;
4424;SDS011;2225;53.568;13.266;2023-09-07T11:02:14;8.13;;;3.90;;
4424;SDS011;2225;53.568;13.266;2023-09-07T11:04:42;11.83;;;4.00;;
4424;SDS011;2225;53.568;13.266;2023-09-07T11:07:09;7.13;;;3.90;;
4424;SDS011;2225;53.568;13.266;2023-09-07T11:09:43;8.33;;;3.87;;
4424;SDS011;2225;53.568;13.266;2023-09-07T11:12:13;7.50;;;3.70;;
4424;SDS011;2225;53.568;13.266;2023-09-07T11:14:42;11.07;;;3.73;;
4424;SDS011;2225;53.568;13.266;2023-09-07T11:17:09;8.03;;;4.10;;
4424;SDS011;2225;53.568;13.266;2023-09-07T11:19:36;10.97;;;4.07;;
4424;SDS011;2225;53.568;13.266;2023-09-07T11:22:03;11.30;;;4.80;;
4424;SDS011;2225;53.568;13.266;2023-09-07T11:24:32;7.87;;;3.57;;
4424;SDS011;2225;53.568;13.266;2023-09-07T11:27:00;9.13;;;4.13;;
4424;SDS011;2225;53.568;13.266;2023-09-07T11:29:31;13.53;;;3.90;;
4424;SDS011;2225;53.568;13.266;2023-09-07T11:32:05;8.33;;;4.50;;
4424;SDS011;2225;53.568;13.266;2023-09-07T11:34:50;10.80;;;4.57;;
4424;SDS011;2225;53.568;13.266;2023-09-07T11:37:23;6.83;;;3.43;;
4424;SDS011;2225;53.568;13.266;2023-09-07T11:39:52;8.53;;;3.77;;
4424;SDS011;2225;53.568;13.266;2023-09-07T11:42:19;11.80;;;3.80;;
4424;SDS011;2225;53.568;13.266;2023-09-07T11:44:46;7.03;;;3.77;;
4424;SDS011;2225;53.568;13.266;2023-09-07T11:47:13;11.63;;;4.30;;
4424;SDS011;2225;53.568;13.266;2023-09-07T11:49:40;11.50;;;4.47;;
4424;SDS011;2225;53.568;13.266;2023-09-07T11:52:07;12.20;;;3.97;;
4424;SDS011;2225;53.568;13.266;2023-09-07T11:54:34;6.83;;;4.17;;
4424;SDS011;2225;53.568;13.266;2023-09-07T11:57:01;9.43;;;4.63;;
4424;SDS011;2225;53.568;13.266;2023-09-07T11:59:29;9.50;;;4.67;;
4424;SDS011;2225;53.568;13.266;2023-09-07T12:02:13;8.40;;;3.90;;
4424;SDS011;2225;53.568;13.266;2023-09-07T12:04:41;10.40;;;4.70;;
4424;SDS011;2225;53.568;13.266;2023-09-07T12:07:08;9.00;;;4.33;;
4424;SDS011;2225;53.568;13.266;2023-09-07T12:09:36;7.43;;;4.00;;
4424;SDS011;2225;53.568;13.266;2023-09-07T12:12:03;10.10;;;4.50;;
4424;SDS011;2225;53.568;13.266;2023-09-07T12:14:30;12.30;;;3.93;;
4424;SDS011;2225;53.568;13.266;2023-09-07T12:16:57;8.00;;;4.10;;
4424;SDS011;2225;53.568;13.266;2023-09-07T12:19:24;9.60;;;4.33;;
4424;SDS011;2225;53.568;13.266;2023-09-07T12:21:53;8.63;;;4.33;;
4424;SDS011;2225;53.568;13.266;2023-09-07T12:24:20;8.47;;;5.10;;
4424;SDS011;2225;53.568;13.266;2023-09-07T12:26:47;14.97;;;3.93;;
4424;SDS011;2225;53.568;13.266;2023-09-07T12:29:14;9.97;;;3.97;;
4424;SDS011;2225;53.568;13.266;2023-09-07T12:31:41;7.80;;;4.10;;
4424;SDS011;2225;53.568;13.266;2023-09-07T12:34:08;9.30;;;4.30;;
4424;SDS011;2225;53.568;13.266;2023-09-07T12:36:35;10.80;;;3.73;;
4424;SDS011;2225;53.568;13.266;2023-09-07T12:39:02;14.17;;;4.93;;
4424;SDS011;2225;53.568;13.266;2023-09-07T12:41:31;9.50;;;4.57;;
4424;SDS011;2225;53.568;13.266;2023-09-07T12:43:58;7.13;;;3.90;;
4424;SDS011;2225;53.568;13.266;2023-09-07T12:46:25;7.33;;;3.77;;
4424;SDS011;2225;53.568;13.266;2023-09-07T12:48:52;13.00;;;4.40;;
4424;SDS011;2225;53.568;13.266;2023-09-07T12:51:19;18.37;;;4.10;;
4424;SDS011;2225;53.568;13.266;2023-09-07T12:53:46;14.60;;;4.27;;
4424;SDS011;2225;53.568;13.266;2023-09-07T12:56:13;8.77;;;3.97;;
4424;SDS011;2225;53.568;13.266;2023-09-07T12:58:42;7.30;;;3.70;;
4424;SDS011;2225;53.568;13.266;2023-09-07T13:01:09;27.00;;;4.70;;
4424;SDS011;2225;53.568;13.266;2023-09-07T13:03:41;9.60;;;4.07;;
4424;SDS011;2225;53.568;13.266;2023-09-07T13:06:09;8.50;;;3.90;;
4424;SDS011;2225;53.568;13.266;2023-09-07T13:08:36;7.40;;;3.67;;
4424;SDS011;2225;53.568;13.266;2023-09-07T13:11:03;7.67;;;4.50;;
4424;SDS011;2225;53.568;13.266;2023-09-07T13:13:30;16.87;;;4.17;;
4424;SDS011;2225;53.568;13.266;2023-09-07T13:15:58;12.90;;;3.60;;
4424;SDS011;2225;53.568;13.266;2023-09-07T13:18:25;8.10;;;4.13;;
4424;SDS011;2225;53.568;13.266;2023-09-07T13:20:52;11.10;;;3.23;;
4424;SDS011;2225;53.568;13.266;2023-09-07T13:23:26;10.00;;;3.80;;
4424;SDS011;2225;53.568;13.266;2023-09-07T13:25:54;10.80;;;3.63;;
4424;SDS011;2225;53.568;13.266;2023-09-07T13:28:22;10.27;;;4.73;;
4424;SDS011;2225;53.568;13.266;2023-09-07T13:30:50;7.07;;;3.97;;
4424;SDS011;2225;53.568;13.266;2023-09-07T13:33:17;12.03;;;4.03;;
4424;SDS011;2225;53.568;13.266;2023-09-07T13:35:44;8.43;;;3.80;;
4424;SDS011;2225;53.568;13.266;2023-09-07T13:38:12;9.70;;;3.67;;
4424;SDS011;2225;53.568;13.266;2023-09-07T13:40:39;9.93;;;3.40;;
4424;SDS011;2225;53.568;13.266;2023-09-07T13:43:06;7.57;;;3.60;;
4424;SDS011;2225;53.568;13.266;2023-09-07T13:45:33;7.30;;;3.90;;
4424;SDS011;2225;53.568;13.266;2023-09-07T13:48:00;11.90;;;3.63;;
4424;SDS011;2225;53.568;13.266;2023-09-07T13:50:28;6.17;;;3.40;;
4424;SDS011;2225;53.568;13.266;2023-09-07T13:52:55;9.40;;;3.43;;
4424;SDS011;2225;53.568;13.266;2023-09-07T13:55:22;11.40;;;4.13;;
4424;SDS011;2225;53.568;13.266;2023-09-07T13:57:51;8.40;;;3.20;;
4424;SDS011;2225;53.568;13.266;2023-09-07T14:00:18;7.03;;;3.30;;
4424;SDS011;2225;53.568;13.266;2023-09-07T14:02:45;12.00;;;3.77;;
4424;SDS011;2225;53.568;13.266;2023-09-07T14:05:12;6.97;;;3.50;;
4424;SDS011;2225;53.568;13.266;2023-09-07T14:07:39;8.80;;;3.50;;
4424;SDS011;2225;53.568;13.266;2023-09-07T14:10:06;8.73;;;4.00;;
4424;SDS011;2225;53.568;13.266;2023-09-07T14:12:33;12.73;;;3.60;;
4424;SDS011;2225;53.568;13.266;2023-09-07T14:15:00;7.53;;;3.20;;
4424;SDS011;2225;53.568;13.266;2023-09-07T14:17:27;8.60;;;4.13;;
4424;SDS011;2225;53.568;13.266;2023-09-07T14:19:54;7.97;;;4.03;;
4424;SDS011;2225;53.568;13.266;2023-09-07T14:22:21;11.07;;;3.80;;
4424;SDS011;2225;53.568;13.266;2023-09-07T14:24:48;10.27;;;3.07;;
4424;SDS011;2225;53.568;13.266;2023-09-07T14:27:15;6.90;;;3.27;;
4424;SDS011;2225;53.568;13.266;2023-09-07T14:29:42;7.70;;;3.50;;
4424;SDS011;2225;53.568;13.266;2023-09-07T14:32:09;10.10;;;4.40;;
4424;SDS011;2225;53.568;13.266;2023-09-07T14:34:36;8.30;;;3.83;;
4424;SDS011;2225;53.568;13.266;2023-09-07T14:37:03;7.03;;;3.23;;
4424;SDS011;2225;53.568;13.266;2023-09-07T14:39:30;6.60;;;3.50;;
4424;SDS011;2225;53.568;13.266;2023-09-07T14:41:57;9.70;;;3.80;;
4424;SDS011;2225;53.568;13.266;2023-09-07T14:44:25;8.30;;;4.23;;
4424;SDS011;2225;53.568;13.266;2023-09-07T14:46:52;11.63;;;3.67;;
4424;SDS011;2225;53.568;13.266;2023-09-07T14:49:19;8.37;;;3.20;;
4424;SDS011;2225;53.568;13.266;2023-09-07T14:51:47;6.67;;;3.23;;
4424;SDS011;2225;53.568;13.266;2023-09-07T14:54:14;10.27;;;2.83;;